createdAt,value
2023-05-01T00:01:12.103Z,15.48
2023-05-01T00:03:38.611Z,14.88
2023-05-01T00:06:05.345Z,14.65
2023-05-01T00:08:32.194Z,13.98
2023-05-01T00:11:03.344Z,14.68
2023-05-01T00:13:30.004Z,18.45
2023-05-01T00:15:56.527Z,15.20
2023-05-01T00:18:23.016Z,11.15
2023-05-01T00:20:49.326Z,14.88
2023-05-01T00:23:15.612Z,13.82
2023-05-01T00:25:41.905Z,12.75
2023-05-01T00:28:08.200Z,11.95
2023-05-01T00:30:34.558Z,16.25
2023-05-01T00:33:02.052Z,14.10
2023-05-01T00:35:29.805Z,14.23
2023-05-01T00:37:56.116Z,9.65
2023-05-01T00:40:22.458Z,12.88
2023-05-01T00:42:48.802Z,16.25
2023-05-01T00:45:15.084Z,19.13
2023-05-01T00:47:41.506Z,11.75
2023-05-01T00:50:08.549Z,15.07
2023-05-01T00:52:35.317Z,14.95
2023-05-01T00:55:01.785Z,13.05
2023-05-01T00:57:28.247Z,15.68
2023-05-01T00:59:54.883Z,15.68
2023-05-01T01:02:21.418Z,14.38
2023-05-01T01:04:48.149Z,14.95
2023-05-01T01:07:22.484Z,10.82
2023-05-01T01:09:55.914Z,10.15
2023-05-01T01:12:32.293Z,13.65
2023-05-01T01:15:08.455Z,12.05
2023-05-01T01:17:49.728Z,10.98
2023-05-01T01:20:31.308Z,10.63
2023-05-01T01:23:35.316Z,10.70
2023-05-01T01:26:10.381Z,10.23
2023-05-01T01:29:02.626Z,10.63
2023-05-01T01:32:09.168Z,9.00
2023-05-01T01:34:44.066Z,12.73
2023-05-01T01:40:07.713Z,15.90
2023-05-01T01:42:49.401Z,9.77
2023-05-01T01:45:21.320Z,13.10
2023-05-01T01:47:48.917Z,9.68
2023-05-01T01:50:16.944Z,8.10
2023-05-01T01:52:47.424Z,10.57
2023-05-01T01:55:14.965Z,10.35
2023-05-01T01:57:43.439Z,11.23
2023-05-01T02:00:10.959Z,9.57
2023-05-01T02:02:39.061Z,10.30
2023-05-01T02:05:07.914Z,8.15
2023-05-01T02:07:37.597Z,10.05
2023-05-01T02:10:05.071Z,10.10
2023-05-01T02:12:33.099Z,8.18
2023-05-01T02:15:00.757Z,8.68
2023-05-01T02:17:28.524Z,11.40
2023-05-01T02:19:56.934Z,9.50
2023-05-01T02:22:26.324Z,7.88
2023-05-01T02:24:55.883Z,12.73
2023-05-01T02:28:01.591Z,10.32
2023-05-01T02:30:28.015Z,6.05
2023-05-01T02:32:54.364Z,10.85
2023-05-01T02:35:20.712Z,10.32
2023-05-01T02:37:47.154Z,9.07
2023-05-01T02:40:13.873Z,11.35
2023-05-01T02:42:42.574Z,12.05
2023-05-01T02:45:10.632Z,9.23
2023-05-01T02:47:44.166Z,10.02
2023-05-01T02:50:11.009Z,8.57
2023-05-01T02:52:38.313Z,9.25
2023-05-01T02:55:05.157Z,11.02
2023-05-01T02:57:33.380Z,9.02
2023-05-01T02:59:59.804Z,13.05
2023-05-01T03:02:26.167Z,12.90
2023-05-01T03:04:52.490Z,10.75
2023-05-01T03:07:18.801Z,11.38
2023-05-01T03:09:45.103Z,13.63
2023-05-01T03:12:11.437Z,9.68
2023-05-01T03:14:37.732Z,9.98
2023-05-01T03:17:04.043Z,13.07
2023-05-01T03:19:30.341Z,13.18
2023-05-01T03:21:56.661Z,10.93
2023-05-01T03:24:24.133Z,13.35
2023-05-01T03:26:50.454Z,11.55
2023-05-01T03:29:16.747Z,10.02
2023-05-01T03:31:43.095Z,12.05
2023-05-01T03:34:09.415Z,13.88
2023-05-01T03:36:36.273Z,9.60
2023-05-01T03:39:03.006Z,11.52
2023-05-01T03:41:29.326Z,12.20
2023-05-01T03:43:55.627Z,13.07
2023-05-01T03:46:21.977Z,7.63
2023-05-01T03:48:48.372Z,9.98
2023-05-01T03:51:14.687Z,9.98
2023-05-01T03:53:40.993Z,10.88
2023-05-01T03:56:07.290Z,10.88
2023-05-01T03:58:33.608Z,11.23
2023-05-01T04:00:59.942Z,13.10
2023-05-01T04:03:26.886Z,9.88
2023-05-01T04:05:53.284Z,8.77
2023-05-01T04:08:19.645Z,13.23
2023-05-01T04:10:45.956Z,10.98
2023-05-01T04:13:12.263Z,9.50
2023-05-01T04:15:38.590Z,12.40
2023-05-01T04:18:05.024Z,9.43
2023-05-01T04:20:31.441Z,9.40
2023-05-01T04:22:57.755Z,10.00
2023-05-01T04:25:24.052Z,9.85
2023-05-01T04:27:50.584Z,9.60
2023-05-01T04:30:17.029Z,9.68
2023-05-01T04:32:43.443Z,9.88
2023-05-01T04:35:09.896Z,11.05
2023-05-01T04:37:36.210Z,12.55
2023-05-01T04:40:02.543Z,10.18
2023-05-01T04:42:32.233Z,10.88
2023-05-01T04:44:58.688Z,15.00
2023-05-01T04:47:25.001Z,8.27
2023-05-01T04:49:51.314Z,12.63
2023-05-01T04:52:17.595Z,9.35
2023-05-01T04:54:43.908Z,9.05
2023-05-01T04:57:10.248Z,13.20
2023-05-01T04:59:36.552Z,9.15
2023-05-01T05:02:02.937Z,11.07
2023-05-01T05:04:29.288Z,10.27
2023-05-01T05:06:55.635Z,12.60
2023-05-01T05:09:21.994Z,11.60
2023-05-01T05:11:48.297Z,8.13
2023-05-01T05:14:14.595Z,8.27
2023-05-01T05:16:40.974Z,9.73
2023-05-01T05:19:07.413Z,10.82
2023-05-01T05:21:33.992Z,16.20
2023-05-01T05:24:00.288Z,9.25
2023-05-01T05:26:26.646Z,9.43
2023-05-01T05:28:53.152Z,9.77
2023-05-01T05:31:19.509Z,8.35
2023-05-01T05:33:45.838Z,8.13
2023-05-01T05:36:12.151Z,8.13
2023-05-01T05:38:38.451Z,8.02
2023-05-01T05:41:04.828Z,7.93
2023-05-01T05:43:31.146Z,10.68
2023-05-01T05:45:58.638Z,11.13
2023-05-01T05:48:25.392Z,9.38
2023-05-01T05:50:51.728Z,9.07
2023-05-01T05:53:21.752Z,6.32
2023-05-01T05:55:49.412Z,8.73
2023-05-01T05:58:15.772Z,9.07
2023-05-01T06:00:42.170Z,11.18
2023-05-01T06:03:08.634Z,7.45
2023-05-01T06:05:35.169Z,7.30
2023-05-01T06:08:01.496Z,6.65
2023-05-01T06:10:27.791Z,10.35
2023-05-01T06:12:58.580Z,7.95
2023-05-01T06:15:30.868Z,7.72
2023-05-01T06:17:57.244Z,8.93
2023-05-01T06:20:23.921Z,7.90
2023-05-01T06:22:50.278Z,8.50
2023-05-01T06:25:16.583Z,9.38
2023-05-01T06:27:43.027Z,8.63
2023-05-01T06:30:09.879Z,11.20
2023-05-01T06:32:36.269Z,8.75
2023-05-01T06:35:02.614Z,6.30
2023-05-01T06:37:28.929Z,9.50
2023-05-01T06:39:55.651Z,6.15
2023-05-01T06:42:22.086Z,6.72
2023-05-01T06:44:48.448Z,10.07
2023-05-01T06:47:14.817Z,10.32
2023-05-01T06:49:41.201Z,10.20
2023-05-01T06:52:07.499Z,10.15
2023-05-01T06:54:33.926Z,8.68
2023-05-01T06:57:00.220Z,7.90
2023-05-01T06:59:26.606Z,7.30
2023-05-01T07:01:53.148Z,8.20
2023-05-01T07:04:19.562Z,12.27
2023-05-01T07:06:45.955Z,9.95
2023-05-01T07:09:12.663Z,10.90
2023-05-01T07:11:39.137Z,12.15
2023-05-01T07:14:05.466Z,10.48
2023-05-01T07:16:31.832Z,7.55
2023-05-01T07:18:58.197Z,6.13
2023-05-01T07:21:24.646Z,7.25
2023-05-01T07:23:50.969Z,9.25
2023-05-01T07:26:17.301Z,9.68
2023-05-01T07:28:43.647Z,7.38
2023-05-01T07:31:09.998Z,9.45
2023-05-01T07:33:37.152Z,8.57
2023-05-01T07:36:04.173Z,7.90
2023-05-01T07:38:30.976Z,8.13
2023-05-01T07:40:57.359Z,6.57
2023-05-01T07:43:23.681Z,11.13
2023-05-01T07:46:01.036Z,6.63
2023-05-01T07:48:28.446Z,9.90
2023-05-01T07:50:55.450Z,10.32
2023-05-01T07:53:21.844Z,10.25
2023-05-01T07:55:48.713Z,6.45
2023-05-01T07:58:15.539Z,10.30
2023-05-01T08:00:41.867Z,9.43
2023-05-01T08:03:08.332Z,8.02
2023-05-01T08:05:34.723Z,6.43
2023-05-01T08:08:01.090Z,7.35
2023-05-01T08:10:27.538Z,11.52
2023-05-01T08:12:53.868Z,8.35
2023-05-01T08:15:20.170Z,11.18
2023-05-01T08:17:46.488Z,9.98
2023-05-01T08:20:13.080Z,7.38
2023-05-01T08:22:39.390Z,9.27
2023-05-01T08:25:06.241Z,10.50
2023-05-01T08:27:32.583Z,7.82
2023-05-01T08:29:59.106Z,7.35
2023-05-01T08:32:25.577Z,8.05
2023-05-01T08:34:51.931Z,9.88
2023-05-01T08:37:18.284Z,6.70
2023-05-01T08:39:45.073Z,7.35
2023-05-01T08:42:11.642Z,15.55
2023-05-01T08:44:41.167Z,7.40
2023-05-01T08:47:17.759Z,7.63
2023-05-01T08:49:45.913Z,8.20
2023-05-01T08:52:14.578Z,10.30
2023-05-01T08:54:45.445Z,7.68
2023-05-01T08:57:12.631Z,7.28
2023-05-01T08:59:40.251Z,7.20
2023-05-01T09:02:08.761Z,7.45
2023-05-01T09:04:40.681Z,6.25
2023-05-01T09:07:08.526Z,8.75
2023-05-01T09:09:35.265Z,4.70
2023-05-01T09:12:12.629Z,7.65
2023-05-01T09:14:39.329Z,8.25
2023-05-01T09:17:06.074Z,6.70
2023-05-01T09:19:32.598Z,5.90
2023-05-01T09:21:58.972Z,9.23
2023-05-01T09:24:25.333Z,6.45
2023-05-01T09:26:52.089Z,9.63
2023-05-01T09:29:38.274Z,6.72
2023-05-01T09:32:17.891Z,7.22
2023-05-01T09:34:44.767Z,5.45
2023-05-01T09:37:13.725Z,7.90
2023-05-01T09:39:40.193Z,8.07
2023-05-01T09:42:06.689Z,7.70
2023-05-01T09:44:40.716Z,7.15
2023-05-01T09:47:07.084Z,9.00
2023-05-01T09:49:47.107Z,7.43
2023-05-01T09:52:13.677Z,8.98
2023-05-01T09:54:40.170Z,6.10
2023-05-01T09:57:06.743Z,5.90
2023-05-01T09:59:33.114Z,5.65
2023-05-01T10:01:59.590Z,8.57
2023-05-01T10:04:35.172Z,7.50
2023-05-01T10:07:12.238Z,5.90
2023-05-01T10:09:38.947Z,5.68
2023-05-01T10:12:05.736Z,5.32
2023-05-01T10:14:32.051Z,4.38
2023-05-01T10:16:58.467Z,5.47
2023-05-01T10:19:25.135Z,4.45
2023-05-01T10:21:51.435Z,7.75
2023-05-01T10:24:17.991Z,6.45
2023-05-01T10:26:44.566Z,6.25
2023-05-01T10:29:12.633Z,6.85
2023-05-01T10:31:40.746Z,9.07
2023-05-01T10:34:09.017Z,5.38
2023-05-01T10:36:43.317Z,5.57
2023-05-01T10:39:31.577Z,5.20
2023-05-01T10:41:57.842Z,4.68
2023-05-01T10:44:25.817Z,5.35
2023-05-01T10:46:52.694Z,4.80
2023-05-01T10:49:19.366Z,3.17
2023-05-01T10:51:58.389Z,3.17
2023-05-01T10:54:26.429Z,3.67
2023-05-01T10:56:54.453Z,3.33
2023-05-01T10:59:20.932Z,5.80
2023-05-01T11:01:49.006Z,2.88
2023-05-01T11:04:21.394Z,3.30
2023-05-01T11:07:03.058Z,7.82
2023-05-01T11:09:42.334Z,4.07
2023-05-01T11:12:11.478Z,3.60
2023-05-01T11:14:56.265Z,2.85
2023-05-01T11:17:40.962Z,2.90
2023-05-01T11:20:07.786Z,3.70
2023-05-01T11:22:34.926Z,1.92
2023-05-01T11:25:02.041Z,3.00
2023-05-01T11:27:28.664Z,2.13
2023-05-01T11:29:55.539Z,4.57
2023-05-01T11:32:27.762Z,1.55
2023-05-01T11:34:54.726Z,4.60
2023-05-01T11:37:39.304Z,3.40
2023-05-01T11:40:19.603Z,3.58
2023-05-01T11:42:45.928Z,1.55
2023-05-01T11:45:12.717Z,2.25
2023-05-01T11:47:39.813Z,2.30
2023-05-01T11:50:07.838Z,2.42
2023-05-01T11:52:48.654Z,3.10
2023-05-01T11:55:16.097Z,2.13
2023-05-01T11:57:49.992Z,2.08
2023-05-01T12:00:26.135Z,3.70
2023-05-01T12:03:02.709Z,3.03
2023-05-01T12:05:31.222Z,2.58
2023-05-01T12:08:11.313Z,2.83
2023-05-01T12:10:39.592Z,2.45
2023-05-01T12:13:07.314Z,2.40
2023-05-01T12:15:38.969Z,3.63
2023-05-01T12:18:05.947Z,2.47
2023-05-01T12:20:46.741Z,2.10
2023-05-01T12:23:14.922Z,1.92
2023-05-01T12:25:42.424Z,3.45
2023-05-01T12:28:11.477Z,3.15
2023-05-01T12:30:38.860Z,2.70
2023-05-01T12:33:15.873Z,3.92
2023-05-01T12:35:43.597Z,2.17
2023-05-01T12:38:11.750Z,1.73
2023-05-01T12:40:39.656Z,2.72
2023-05-01T12:43:06.047Z,1.60
2023-05-01T12:45:39.245Z,2.38
2023-05-01T12:48:14.820Z,3.05
2023-05-01T12:50:41.563Z,1.83
2023-05-01T12:53:08.972Z,2.33
2023-05-01T12:55:46.702Z,3.13
2023-05-01T12:58:13.607Z,3.35
2023-05-01T13:00:45.245Z,3.03
2023-05-01T13:03:12.327Z,1.80
2023-05-01T13:05:50.582Z,1.63
2023-05-01T13:08:25.658Z,2.15
2023-05-01T13:10:56.518Z,1.80
2023-05-01T13:13:31.312Z,1.95
2023-05-01T13:16:10.387Z,2.78
2023-05-01T13:18:51.511Z,1.80
2023-05-01T13:21:23.523Z,2.33
2023-05-01T13:23:58.427Z,2.00
2023-05-01T13:26:26.562Z,2.60
2023-05-01T13:28:52.950Z,2.05
2023-05-01T13:31:19.408Z,2.22
2023-05-01T13:33:45.867Z,1.92
2023-05-01T13:36:24.602Z,1.25
2023-05-01T13:38:54.756Z,3.33
2023-05-01T13:41:22.447Z,1.65
2023-05-01T13:43:49.783Z,2.70
2023-05-01T13:46:19.288Z,2.47
2023-05-01T13:48:45.944Z,1.75
2023-05-01T13:51:12.676Z,3.25
2023-05-01T13:53:40.592Z,3.47
2023-05-01T13:56:09.560Z,3.95
2023-05-01T13:58:36.834Z,2.75
2023-05-01T14:01:04.704Z,2.10
2023-05-01T14:03:39.731Z,0.95
2023-05-01T14:06:09.928Z,2.50
2023-05-01T14:08:36.455Z,2.15
2023-05-01T14:11:05.663Z,2.20
2023-05-01T14:13:32.026Z,3.10
2023-05-01T14:15:58.331Z,2.60
2023-05-01T14:18:24.717Z,1.75
2023-05-01T14:20:51.099Z,1.60
2023-05-01T14:23:17.408Z,0.85
2023-05-01T14:25:49.128Z,1.58
2023-05-01T14:28:15.423Z,1.52
2023-05-01T14:30:41.866Z,2.15
2023-05-01T14:33:11.278Z,1.05
2023-05-01T14:35:47.237Z,2.78
2023-05-01T14:38:15.094Z,3.58
2023-05-01T14:40:41.861Z,2.28
2023-05-01T14:43:09.869Z,1.73
2023-05-01T14:45:40.308Z,1.65
2023-05-01T14:48:06.703Z,1.33
2023-05-01T14:50:33.092Z,1.10
2023-05-01T14:53:00.903Z,2.67
2023-05-01T14:55:29.869Z,1.52
2023-05-01T14:57:57.396Z,1.70
2023-05-01T15:00:24.289Z,1.98
2023-05-01T15:02:51.038Z,1.55
2023-05-01T15:05:17.907Z,1.95
2023-05-01T15:07:44.236Z,1.77
2023-05-01T15:10:10.899Z,2.45
2023-05-01T15:12:37.207Z,1.55
2023-05-01T15:15:03.734Z,2.42
2023-05-01T15:17:31.093Z,3.95
2023-05-01T15:19:58.599Z,1.20
2023-05-01T15:22:24.946Z,3.17
2023-05-01T15:24:51.248Z,2.72
2023-05-01T15:27:17.589Z,4.25
2023-05-01T15:29:43.899Z,2.55
2023-05-01T15:32:12.364Z,2.28
2023-05-01T15:34:39.474Z,1.20
2023-05-01T15:37:05.798Z,2.00
2023-05-01T15:39:32.192Z,3.15
2023-05-01T15:41:58.722Z,2.70
2023-05-01T15:44:25.002Z,2.20
2023-05-01T15:46:51.392Z,1.55
2023-05-01T15:49:17.740Z,1.75
2023-05-01T15:51:44.051Z,1.90
2023-05-01T15:54:10.503Z,2.50
2023-05-01T15:56:37.630Z,1.98
2023-05-01T15:59:05.439Z,1.40
2023-05-01T16:01:33.128Z,1.73
2023-05-01T16:04:00.269Z,1.63
2023-05-01T16:06:26.983Z,2.45
2023-05-01T16:08:53.561Z,2.90
2023-05-01T16:11:19.968Z,0.88
2023-05-01T16:13:46.291Z,2.30
2023-05-01T16:16:19.087Z,1.25
2023-05-01T16:18:45.596Z,1.45
2023-05-01T16:21:15.790Z,2.17
2023-05-01T16:23:42.782Z,2.65
2023-05-01T16:26:09.840Z,2.70
2023-05-01T16:28:36.475Z,2.20
2023-05-01T16:31:08.294Z,3.80
2023-05-01T16:33:39.504Z,2.47
2023-05-01T16:36:09.026Z,2.55
2023-05-01T16:38:36.361Z,3.53
2023-05-01T16:41:02.726Z,1.98
2023-05-01T16:43:29.051Z,1.08
2023-05-01T16:45:57.695Z,4.75
2023-05-01T16:48:24.555Z,4.10
2023-05-01T16:50:51.211Z,1.27
2023-05-01T16:53:17.534Z,2.30
2023-05-01T16:55:44.152Z,2.67
2023-05-01T16:58:10.467Z,1.85
2023-05-01T17:00:36.752Z,2.58
2023-05-01T17:03:03.121Z,1.58
2023-05-01T17:05:29.511Z,2.25
2023-05-01T17:07:55.809Z,2.38
2023-05-01T17:10:22.112Z,6.78
2023-05-01T17:12:48.426Z,2.05
2023-05-01T17:15:14.765Z,6.43
2023-05-01T17:17:41.188Z,4.57
2023-05-01T17:20:08.178Z,11.80
2023-05-01T17:22:34.500Z,4.13
2023-05-01T17:25:00.839Z,5.10
2023-05-01T17:27:27.141Z,8.38
2023-05-01T17:29:53.478Z,5.63
2023-05-01T17:32:33.209Z,2.97
2023-05-01T17:35:03.679Z,5.85
2023-05-01T17:37:29.989Z,4.40
2023-05-01T17:39:56.453Z,4.25
2023-05-01T17:42:22.928Z,4.97
2023-05-01T17:44:49.243Z,2.50
2023-05-01T17:47:15.544Z,2.72
2023-05-01T17:49:41.844Z,4.35
2023-05-01T17:52:08.375Z,3.10
2023-05-01T17:54:34.673Z,4.03
2023-05-01T17:57:00.984Z,5.13
2023-05-01T17:59:27.320Z,4.13
2023-05-01T18:01:53.697Z,3.00
2023-05-01T18:04:20.176Z,2.95
2023-05-01T18:06:46.599Z,4.07
2023-05-01T18:09:12.975Z,4.32
2023-05-01T18:11:39.274Z,2.10
2023-05-01T18:14:05.582Z,3.25
2023-05-01T18:16:31.958Z,2.35
2023-05-01T18:18:58.309Z,4.30
2023-05-01T18:21:25.026Z,4.15
2023-05-01T18:23:51.382Z,1.95
2023-05-01T18:26:17.732Z,2.45
2023-05-01T18:28:44.049Z,5.13
2023-05-01T18:31:10.401Z,1.70
2023-05-01T18:33:36.782Z,4.45
2023-05-01T18:36:04.379Z,2.13
2023-05-01T18:38:30.670Z,3.88
2023-05-01T18:40:56.986Z,1.27
2023-05-01T18:43:23.389Z,2.08
2023-05-01T18:45:49.755Z,2.13
2023-05-01T18:48:16.165Z,2.67
2023-05-01T18:50:42.989Z,1.83
2023-05-01T18:53:10.782Z,2.28
2023-05-01T18:55:37.094Z,2.22
2023-05-01T18:58:03.422Z,1.50
2023-05-01T19:00:29.733Z,1.95
2023-05-01T19:02:56.350Z,2.13
2023-05-01T19:05:22.904Z,1.42
2023-05-01T19:07:49.861Z,2.78
2023-05-01T19:10:16.252Z,1.45
2023-05-01T19:12:42.543Z,1.40
2023-05-01T19:15:09.471Z,1.83
2023-05-01T19:17:35.820Z,1.15
2023-05-01T19:20:02.366Z,2.08
2023-05-01T19:22:28.752Z,2.15
2023-05-01T19:24:55.079Z,1.95
2023-05-01T19:27:21.375Z,3.10
2023-05-01T19:29:47.675Z,2.22
2023-05-01T19:32:14.141Z,1.65
2023-05-01T19:34:40.671Z,1.42
2023-05-01T19:37:07.081Z,2.70
2023-05-01T19:39:33.375Z,2.45
2023-05-01T19:41:59.692Z,1.98
2023-05-01T19:44:26.045Z,2.08
2023-05-01T19:46:52.349Z,2.33
2023-05-01T19:49:18.680Z,4.35
2023-05-01T19:51:45.383Z,3.65
2023-05-01T19:54:11.708Z,4.63
2023-05-01T19:56:38.007Z,2.53
2023-05-01T19:59:04.314Z,2.95
2023-05-01T20:01:30.662Z,3.00
2023-05-01T20:03:57.204Z,3.17
2023-05-01T20:06:23.644Z,4.78
2023-05-01T20:08:49.997Z,3.72
2023-05-01T20:11:16.352Z,4.40
2023-05-01T20:13:42.678Z,3.10
2023-05-01T20:16:09.007Z,3.65
2023-05-01T20:18:35.329Z,4.13
2023-05-01T20:21:01.639Z,3.25
2023-05-01T20:23:27.981Z,4.45
2023-05-01T20:25:54.302Z,3.88
2023-05-01T20:28:20.634Z,3.92
2023-05-01T20:30:48.563Z,3.45
2023-05-01T20:33:15.292Z,4.72
2023-05-01T20:35:41.627Z,3.63
2023-05-01T20:38:07.966Z,5.18
2023-05-01T20:40:36.576Z,3.70
2023-05-01T20:43:02.972Z,4.03
2023-05-01T20:45:29.268Z,4.75
2023-05-01T20:47:55.640Z,4.57
2023-05-01T20:50:21.977Z,8.32
2023-05-01T20:52:48.503Z,7.90
2023-05-01T20:55:14.833Z,7.75
2023-05-01T20:57:41.158Z,6.95
2023-05-01T21:00:07.949Z,6.85
2023-05-01T21:02:36.957Z,6.18
2023-05-01T21:05:03.593Z,5.43
2023-05-01T21:07:30.047Z,4.70
2023-05-01T21:09:56.553Z,5.57
2023-05-01T21:12:22.929Z,5.07
2023-05-01T21:14:49.248Z,5.00
2023-05-01T21:17:15.897Z,5.20
2023-05-01T21:19:46.394Z,5.90
2023-05-01T21:22:16.213Z,7.65
2023-05-01T21:24:44.329Z,8.15
2023-05-01T21:27:11.644Z,5.20
2023-05-01T21:29:40.038Z,5.15
2023-05-01T21:32:07.804Z,5.63
2023-05-01T21:34:34.619Z,5.65
2023-05-01T21:37:00.984Z,5.85
2023-05-01T21:39:27.453Z,5.30
2023-05-01T21:41:53.755Z,6.03
2023-05-01T21:44:21.778Z,4.75
2023-05-01T21:46:48.106Z,6.13
2023-05-01T21:49:15.753Z,5.35
2023-05-01T21:51:42.116Z,5.70
2023-05-01T21:54:08.602Z,5.43
2023-05-01T21:56:34.903Z,5.10
2023-05-01T21:59:02.174Z,5.63
2023-05-01T22:01:28.639Z,7.07
2023-05-01T22:03:55.094Z,5.20
2023-05-01T22:06:21.510Z,6.10
2023-05-01T22:08:47.898Z,5.97
2023-05-01T22:11:14.207Z,7.72
2023-05-01T22:13:40.506Z,6.20
2023-05-01T22:16:07.346Z,4.72
2023-05-01T22:18:33.768Z,5.65
2023-05-01T22:21:00.188Z,6.47
2023-05-01T22:23:26.509Z,4.20
2023-05-01T22:25:52.829Z,4.95
2023-05-01T22:28:20.357Z,6.35
2023-05-01T22:30:47.272Z,5.13
2023-05-01T22:33:13.620Z,4.63
2023-05-01T22:35:39.967Z,5.40
2023-05-01T22:38:06.247Z,4.75
2023-05-01T22:40:32.601Z,5.65
2023-05-01T22:42:58.918Z,5.03
2023-05-01T22:45:25.217Z,6.30
2023-05-01T22:47:51.566Z,5.10
2023-05-01T22:50:17.898Z,6.53
2023-05-01T22:52:46.408Z,4.53
2023-05-01T22:55:12.950Z,4.63
2023-05-01T22:57:39.248Z,7.07
2023-05-01T23:00:06.503Z,7.03
2023-05-01T23:02:33.609Z,5.93
2023-05-01T23:04:59.956Z,5.82
2023-05-01T23:07:26.282Z,6.20
2023-05-01T23:09:52.597Z,6.75
2023-05-01T23:12:20.307Z,4.75
2023-05-01T23:14:46.651Z,6.85
2023-05-01T23:17:13.950Z,7.30
2023-05-01T23:19:41.583Z,8.05
2023-05-01T23:22:09.985Z,5.05
2023-05-01T23:24:42.084Z,6.68
2023-05-01T23:27:08.638Z,4.88
2023-05-01T23:29:35.139Z,6.15
2023-05-01T23:32:01.592Z,5.00
2023-05-01T23:34:28.718Z,6.53
2023-05-01T23:36:55.043Z,7.18
2023-05-01T23:39:21.352Z,5.95
2023-05-01T23:41:48.281Z,4.82
2023-05-01T23:44:14.582Z,5.25
2023-05-01T23:46:41.724Z,6.93
2023-05-01T23:49:08.105Z,5.15
2023-05-01T23:51:34.532Z,6.93
2023-05-01T23:54:00.846Z,5.35
2023-05-01T23:56:27.164Z,6.13
2023-05-01T23:58:53.481Z,5.38
